sensor_id;sensor_type;location;lat;lon;timestamp;P1;durP1;ratioP1;P2;durP2;ratioP2
15354;SDS011;7777;52.254;9.618;2023-03-01T00:00:46;9.50;;;4.93;;
15354;SDS011;7777;52.254;9.618;2023-03-01T00:03:12;11.37;;;6.10;;
15354;SDS011;7777;52.254;9.618;2023-03-01T00:05:43;9.13;;;5.40;;
15354;SDS011;7777;52.254;9.618;2023-03-01T00:08:10;7.33;;;4.97;;
15354;SDS011;7777;52.254;9.618;2023-03-01T00:10:36;9.47;;;5.80;;
15354;SDS011;7777;52.254;9.618;2023-03-01T00:13:02;8.27;;;5.07;;
15354;SDS011;7777;52.254;9.618;2023-03-01T00:15:30;9.63;;;4.90;;
15354;SDS011;7777;52.254;9.618;2023-03-01T00:17:57;6.23;;;4.90;;
15354;SDS011;7777;52.254;9.618;2023-03-01T00:20:23;6.93;;;4.70;;
15354;SDS011;7777;52.254;9.618;2023-03-01T00:22:49;7.13;;;4.53;;
15354;SDS011;7777;52.254;9.618;2023-03-01T00:25:14;8.47;;;4.93;;
15354;SDS011;7777;52.254;9.618;2023-03-01T00:27:40;11.00;;;6.07;;
15354;SDS011;7777;52.254;9.618;2023-03-01T00:30:06;10.73;;;4.47;;
15354;SDS011;7777;52.254;9.618;2023-03-01T00:32:33;11.77;;;5.27;;
15354;SDS011;7777;52.254;9.618;2023-03-01T00:34:59;7.87;;;4.53;;
15354;SDS011;7777;52.254;9.618;2023-03-01T00:37:24;12.97;;;4.27;;
15354;SDS011;7777;52.254;9.618;2023-03-01T00:39:50;8.87;;;4.90;;
15354;SDS011;7777;52.254;9.618;2023-03-01T00:42:16;6.37;;;4.53;;
15354;SDS011;7777;52.254;9.618;2023-03-01T00:44:42;8.13;;;4.50;;
15354;SDS011;7777;52.254;9.618;2023-03-01T00:47:08;7.73;;;4.70;;
15354;SDS011;7777;52.254;9.618;2023-03-01T00:49:34;6.27;;;4.13;;
15354;SDS011;7777;52.254;9.618;2023-03-01T00:52:00;8.50;;;5.00;;
15354;SDS011;7777;52.254;9.618;2023-03-01T00:54:25;7.10;;;4.43;;
15354;SDS011;7777;52.254;9.618;2023-03-01T00:56:51;6.80;;;4.33;;
15354;SDS011;7777;52.254;9.618;2023-03-01T00:59:18;6.20;;;4.03;;
15354;SDS011;7777;52.254;9.618;2023-03-01T01:01:43;8.63;;;3.70;;
15354;SDS011;7777;52.254;9.618;2023-03-01T01:04:10;7.50;;;4.33;;
15354;SDS011;7777;52.254;9.618;2023-03-01T01:06:39;7.23;;;4.43;;
15354;SDS011;7777;52.254;9.618;2023-03-01T01:09:14;5.27;;;3.50;;
15354;SDS011;7777;52.254;9.618;2023-03-01T01:11:48;7.30;;;4.03;;
15354;SDS011;7777;52.254;9.618;2023-03-01T01:14:16;5.57;;;3.90;;
15354;SDS011;7777;52.254;9.618;2023-03-01T01:16:43;9.33;;;4.40;;
15354;SDS011;7777;52.254;9.618;2023-03-01T01:19:09;5.27;;;3.33;;
15354;SDS011;7777;52.254;9.618;2023-03-01T01:21:36;6.07;;;3.90;;
15354;SDS011;7777;52.254;9.618;2023-03-01T01:24:03;9.07;;;4.30;;
15354;SDS011;7777;52.254;9.618;2023-03-01T01:26:31;5.90;;;3.63;;
15354;SDS011;7777;52.254;9.618;2023-03-01T01:28:58;7.97;;;4.20;;
15354;SDS011;7777;52.254;9.618;2023-03-01T01:31:26;5.97;;;3.53;;
15354;SDS011;7777;52.254;9.618;2023-03-01T01:33:53;6.67;;;4.00;;
15354;SDS011;7777;52.254;9.618;2023-03-01T01:36:20;6.17;;;4.07;;
15354;SDS011;7777;52.254;9.618;2023-03-01T01:38:46;6.67;;;4.17;;
15354;SDS011;7777;52.254;9.618;2023-03-01T01:41:12;6.77;;;3.57;;
15354;SDS011;7777;52.254;9.618;2023-03-01T01:43:43;8.17;;;4.30;;
15354;SDS011;7777;52.254;9.618;2023-03-01T01:46:53;6.97;;;4.33;;
15354;SDS011;7777;52.254;9.618;2023-03-01T01:52:17;6.77;;;4.13;;
15354;SDS011;7777;52.254;9.618;2023-03-01T01:54:51;9.07;;;4.00;;
15354;SDS011;7777;52.254;9.618;2023-03-01T01:57:33;8.10;;;3.93;;
15354;SDS011;7777;52.254;9.618;2023-03-01T02:00:00;6.80;;;4.40;;
15354;SDS011;7777;52.254;9.618;2023-03-01T02:02:33;6.90;;;4.40;;
15354;SDS011;7777;52.254;9.618;2023-03-01T02:05:09;7.27;;;3.90;;
15354;SDS011;7777;52.254;9.618;2023-03-01T02:07:51;8.50;;;4.70;;
15354;SDS011;7777;52.254;9.618;2023-03-01T02:10:17;7.47;;;4.27;;
15354;SDS011;7777;52.254;9.618;2023-03-01T02:12:43;6.37;;;4.60;;
15354;SDS011;7777;52.254;9.618;2023-03-01T02:15:10;7.57;;;4.37;;
15354;SDS011;7777;52.254;9.618;2023-03-01T02:17:38;9.83;;;4.70;;
15354;SDS011;7777;52.254;9.618;2023-03-01T02:22:45;9.13;;;4.70;;
15354;SDS011;7777;52.254;9.618;2023-03-01T02:28:01;10.00;;;5.27;;
15354;SDS011;7777;52.254;9.618;2023-03-01T02:30:43;8.37;;;5.50;;
15354;SDS011;7777;52.254;9.618;2023-03-01T02:33:31;8.47;;;5.27;;
15354;SDS011;7777;52.254;9.618;2023-03-01T02:36:01;12.40;;;5.50;;
15354;SDS011;7777;52.254;9.618;2023-03-01T02:38:31;9.30;;;5.17;;
15354;SDS011;7777;52.254;9.618;2023-03-01T02:40:57;10.23;;;5.27;;
15354;SDS011;7777;52.254;9.618;2023-03-01T02:43:26;8.23;;;5.10;;
15354;SDS011;7777;52.254;9.618;2023-03-01T02:46:04;8.07;;;5.57;;
15354;SDS011;7777;52.254;9.618;2023-03-01T02:48:41;9.10;;;5.03;;
15354;SDS011;7777;52.254;9.618;2023-03-01T02:56:44;8.27;;;5.60;;
15354;SDS011;7777;52.254;9.618;2023-03-01T02:59:13;8.77;;;5.17;;
15354;SDS011;7777;52.254;9.618;2023-03-01T03:01:41;9.93;;;5.87;;
15354;SDS011;7777;52.254;9.618;2023-03-01T03:04:11;10.23;;;5.63;;
15354;SDS011;7777;52.254;9.618;2023-03-01T03:06:41;11.87;;;5.57;;
15354;SDS011;7777;52.254;9.618;2023-03-01T03:09:12;7.53;;;5.40;;
15354;SDS011;7777;52.254;9.618;2023-03-01T03:11:39;11.83;;;6.20;;
15354;SDS011;7777;52.254;9.618;2023-03-01T03:14:06;11.57;;;6.00;;
15354;SDS011;7777;52.254;9.618;2023-03-01T03:16:45;10.57;;;6.17;;
15354;SDS011;7777;52.254;9.618;2023-03-01T03:19:13;10.17;;;5.77;;
15354;SDS011;7777;52.254;9.618;2023-03-01T03:21:41;12.37;;;5.57;;
15354;SDS011;7777;52.254;9.618;2023-03-01T03:24:07;7.37;;;4.87;;
15354;SDS011;7777;52.254;9.618;2023-03-01T03:26:34;14.43;;;5.87;;
15354;SDS011;7777;52.254;9.618;2023-03-01T03:29:00;10.07;;;5.73;;
15354;SDS011;7777;52.254;9.618;2023-03-01T03:31:26;10.07;;;6.10;;
15354;SDS011;7777;52.254;9.618;2023-03-01T03:33:52;11.20;;;6.43;;
15354;SDS011;7777;52.254;9.618;2023-03-01T03:36:19;13.40;;;6.27;;
15354;SDS011;7777;52.254;9.618;2023-03-01T03:38:47;13.57;;;6.40;;
15354;SDS011;7777;52.254;9.618;2023-03-01T03:41:13;7.93;;;5.57;;
15354;SDS011;7777;52.254;9.618;2023-03-01T03:43:40;11.87;;;6.43;;
15354;SDS011;7777;52.254;9.618;2023-03-01T03:46:07;13.13;;;6.27;;
15354;SDS011;7777;52.254;9.618;2023-03-01T03:48:39;8.53;;;5.50;;
15354;SDS011;7777;52.254;9.618;2023-03-01T03:51:10;7.83;;;5.43;;
15354;SDS011;7777;52.254;9.618;2023-03-01T03:53:38;9.57;;;5.70;;
15354;SDS011;7777;52.254;9.618;2023-03-01T03:56:05;9.87;;;6.03;;
15354;SDS011;7777;52.254;9.618;2023-03-01T03:58:31;9.43;;;5.60;;
15354;SDS011;7777;52.254;9.618;2023-03-01T04:00:57;9.50;;;6.37;;
15354;SDS011;7777;52.254;9.618;2023-03-01T04:03:23;8.63;;;5.10;;
15354;SDS011;7777;52.254;9.618;2023-03-01T04:05:51;11.57;;;6.37;;
15354;SDS011;7777;52.254;9.618;2023-03-01T04:08:18;9.03;;;5.97;;
15354;SDS011;7777;52.254;9.618;2023-03-01T04:10:47;8.07;;;5.20;;
15354;SDS011;7777;52.254;9.618;2023-03-01T04:13:16;9.37;;;5.67;;
15354;SDS011;7777;52.254;9.618;2023-03-01T04:15:46;8.67;;;5.70;;
15354;SDS011;7777;52.254;9.618;2023-03-01T04:18:16;7.77;;;5.37;;
15354;SDS011;7777;52.254;9.618;2023-03-01T04:20:44;9.53;;;5.93;;
15354;SDS011;7777;52.254;9.618;2023-03-01T04:23:15;11.90;;;6.73;;
15354;SDS011;7777;52.254;9.618;2023-03-01T04:25:46;9.77;;;5.80;;
15354;SDS011;7777;52.254;9.618;2023-03-01T04:28:18;9.20;;;5.93;;
15354;SDS011;7777;52.254;9.618;2023-03-01T04:30:58;10.47;;;6.13;;
15354;SDS011;7777;52.254;9.618;2023-03-01T04:33:38;9.20;;;5.77;;
15354;SDS011;7777;52.254;9.618;2023-03-01T04:36:06;10.57;;;6.13;;
15354;SDS011;7777;52.254;9.618;2023-03-01T04:38:34;11.63;;;6.90;;
15354;SDS011;7777;52.254;9.618;2023-03-01T04:41:05;11.10;;;6.37;;
15354;SDS011;7777;52.254;9.618;2023-03-01T04:43:34;9.70;;;6.00;;
15354;SDS011;7777;52.254;9.618;2023-03-01T04:46:01;7.77;;;5.43;;
15354;SDS011;7777;52.254;9.618;2023-03-01T04:48:34;11.00;;;6.10;;
15354;SDS011;7777;52.254;9.618;2023-03-01T04:51:02;10.63;;;5.80;;
15354;SDS011;7777;52.254;9.618;2023-03-01T04:53:29;11.37;;;5.70;;
15354;SDS011;7777;52.254;9.618;2023-03-01T04:55:55;9.70;;;6.30;;
15354;SDS011;7777;52.254;9.618;2023-03-01T04:58:25;12.27;;;6.53;;
15354;SDS011;7777;52.254;9.618;2023-03-01T05:00:52;8.30;;;5.73;;
15354;SDS011;7777;52.254;9.618;2023-03-01T05:03:18;10.13;;;6.87;;
15354;SDS011;7777;52.254;9.618;2023-03-01T05:05:46;9.13;;;6.13;;
15354;SDS011;7777;52.254;9.618;2023-03-01T05:08:15;8.00;;;5.77;;
15354;SDS011;7777;52.254;9.618;2023-03-01T05:10:50;12.00;;;5.43;;
15354;SDS011;7777;52.254;9.618;2023-03-01T05:13:18;11.90;;;7.00;;
15354;SDS011;7777;52.254;9.618;2023-03-01T05:15:55;7.77;;;5.47;;
15354;SDS011;7777;52.254;9.618;2023-03-01T05:18:24;9.27;;;5.60;;
15354;SDS011;7777;52.254;9.618;2023-03-01T05:20:52;14.10;;;6.60;;
15354;SDS011;7777;52.254;9.618;2023-03-01T05:23:25;10.87;;;6.00;;
15354;SDS011;7777;52.254;9.618;2023-03-01T05:25:51;8.23;;;5.47;;
15354;SDS011;7777;52.254;9.618;2023-03-01T05:28:18;10.30;;;5.83;;
15354;SDS011;7777;52.254;9.618;2023-03-01T05:30:45;11.97;;;6.40;;
15354;SDS011;7777;52.254;9.618;2023-03-01T05:33:12;10.60;;;6.03;;
15354;SDS011;7777;52.254;9.618;2023-03-01T05:35:41;11.00;;;6.37;;
15354;SDS011;7777;52.254;9.618;2023-03-01T05:38:09;9.73;;;6.30;;
15354;SDS011;7777;52.254;9.618;2023-03-01T05:40:40;11.53;;;6.23;;
15354;SDS011;7777;52.254;9.618;2023-03-01T05:43:11;7.93;;;5.70;;
15354;SDS011;7777;52.254;9.618;2023-03-01T05:45:43;10.47;;;5.97;;
15354;SDS011;7777;52.254;9.618;2023-03-01T05:48:13;13.87;;;7.30;;
15354;SDS011;7777;52.254;9.618;2023-03-01T05:50:53;9.97;;;6.50;;
15354;SDS011;7777;52.254;9.618;2023-03-01T05:55:39;7.50;;;5.27;;
15354;SDS011;7777;52.254;9.618;2023-03-01T05:58:12;11.37;;;5.80;;
15354;SDS011;7777;52.254;9.618;2023-03-01T06:00:41;8.83;;;5.17;;
15354;SDS011;7777;52.254;9.618;2023-03-01T06:03:09;9.43;;;5.77;;
15354;SDS011;7777;52.254;9.618;2023-03-01T06:05:37;9.63;;;6.07;;
15354;SDS011;7777;52.254;9.618;2023-03-01T06:08:04;8.90;;;5.47;;
15354;SDS011;7777;52.254;9.618;2023-03-01T06:10:30;10.50;;;6.27;;
15354;SDS011;7777;52.254;9.618;2023-03-01T06:12:56;15.50;;;6.83;;
15354;SDS011;7777;52.254;9.618;2023-03-01T06:15:23;11.20;;;6.60;;
15354;SDS011;7777;52.254;9.618;2023-03-01T06:17:49;10.20;;;6.33;;
15354;SDS011;7777;52.254;9.618;2023-03-01T06:20:19;13.87;;;6.27;;
15354;SDS011;7777;52.254;9.618;2023-03-01T06:22:48;13.17;;;6.10;;
15354;SDS011;7777;52.254;9.618;2023-03-01T06:25:15;11.63;;;6.40;;
15354;SDS011;7777;52.254;9.618;2023-03-01T06:27:44;9.23;;;6.57;;
15354;SDS011;7777;52.254;9.618;2023-03-01T06:30:11;10.53;;;6.47;;
15354;SDS011;7777;52.254;9.618;2023-03-01T06:32:39;8.13;;;5.97;;
15354;SDS011;7777;52.254;9.618;2023-03-01T06:35:09;13.90;;;6.90;;
15354;SDS011;7777;52.254;9.618;2023-03-01T06:37:39;10.33;;;6.83;;
15354;SDS011;7777;52.254;9.618;2023-03-01T06:40:06;9.43;;;6.40;;
15354;SDS011;7777;52.254;9.618;2023-03-01T06:42:36;10.67;;;6.73;;
15354;SDS011;7777;52.254;9.618;2023-03-01T06:45:03;11.13;;;6.57;;
15354;SDS011;7777;52.254;9.618;2023-03-01T06:47:31;12.80;;;6.60;;
15354;SDS011;7777;52.254;9.618;2023-03-01T06:50:01;10.73;;;6.53;;
15354;SDS011;7777;52.254;9.618;2023-03-01T06:52:27;9.73;;;7.13;;
15354;SDS011;7777;52.254;9.618;2023-03-01T06:54:54;9.90;;;6.97;;
15354;SDS011;7777;52.254;9.618;2023-03-01T06:57:19;12.63;;;7.80;;
15354;SDS011;7777;52.254;9.618;2023-03-01T06:59:46;11.47;;;7.57;;
15354;SDS011;7777;52.254;9.618;2023-03-01T07:02:13;12.60;;;7.63;;
15354;SDS011;7777;52.254;9.618;2023-03-01T07:04:40;11.30;;;7.80;;
15354;SDS011;7777;52.254;9.618;2023-03-01T07:07:06;12.67;;;8.33;;
15354;SDS011;7777;52.254;9.618;2023-03-01T07:09:32;12.30;;;8.27;;
15354;SDS011;7777;52.254;9.618;2023-03-01T07:11:58;13.37;;;8.60;;
15354;SDS011;7777;52.254;9.618;2023-03-01T07:14:24;14.07;;;7.60;;
15354;SDS011;7777;52.254;9.618;2023-03-01T07:16:51;14.40;;;8.53;;
15354;SDS011;7777;52.254;9.618;2023-03-01T07:19:20;15.23;;;7.93;;
15354;SDS011;7777;52.254;9.618;2023-03-01T07:21:47;17.60;;;8.33;;
15354;SDS011;7777;52.254;9.618;2023-03-01T07:24:13;12.77;;;8.63;;
15354;SDS011;7777;52.254;9.618;2023-03-01T07:26:39;12.97;;;9.23;;
15354;SDS011;7777;52.254;9.618;2023-03-01T07:29:05;14.43;;;8.73;;
15354;SDS011;7777;52.254;9.618;2023-03-01T07:31:33;14.17;;;8.57;;
15354;SDS011;7777;52.254;9.618;2023-03-01T07:33:59;14.07;;;8.97;;
15354;SDS011;7777;52.254;9.618;2023-03-01T07:36:25;13.17;;;9.07;;
15354;SDS011;7777;52.254;9.618;2023-03-01T07:38:50;13.30;;;8.73;;
15354;SDS011;7777;52.254;9.618;2023-03-01T07:41:16;13.17;;;9.30;;
15354;SDS011;7777;52.254;9.618;2023-03-01T07:43:42;15.90;;;10.47;;
15354;SDS011;7777;52.254;9.618;2023-03-01T07:46:08;13.60;;;9.83;;
15354;SDS011;7777;52.254;9.618;2023-03-01T07:48:35;13.20;;;9.37;;
15354;SDS011;7777;52.254;9.618;2023-03-01T07:51:01;17.10;;;10.47;;
15354;SDS011;7777;52.254;9.618;2023-03-01T07:53:29;19.30;;;11.50;;
15354;SDS011;7777;52.254;9.618;2023-03-01T07:56:15;18.47;;;11.23;;
15354;SDS011;7777;52.254;9.618;2023-03-01T07:58:43;14.83;;;10.70;;
15354;SDS011;7777;52.254;9.618;2023-03-01T08:01:13;17.93;;;11.57;;
15354;SDS011;7777;52.254;9.618;2023-03-01T08:03:42;15.63;;;10.53;;
15354;SDS011;7777;52.254;9.618;2023-03-01T08:06:11;18.03;;;11.80;;
15354;SDS011;7777;52.254;9.618;2023-03-01T08:08:38;19.50;;;11.27;;
15354;SDS011;7777;52.254;9.618;2023-03-01T08:11:05;25.93;;;12.73;;
15354;SDS011;7777;52.254;9.618;2023-03-01T08:13:32;22.43;;;12.60;;
15354;SDS011;7777;52.254;9.618;2023-03-01T08:16:02;27.73;;;13.73;;
15354;SDS011;7777;52.254;9.618;2023-03-01T08:18:30;19.03;;;12.27;;
15354;SDS011;7777;52.254;9.618;2023-03-01T08:21:00;19.73;;;11.13;;
15354;SDS011;7777;52.254;9.618;2023-03-01T08:23:28;21.47;;;11.60;;
15354;SDS011;7777;52.254;9.618;2023-03-01T08:25:55;16.07;;;10.40;;
15354;SDS011;7777;52.254;9.618;2023-03-01T08:28:28;16.73;;;10.43;;
15354;SDS011;7777;52.254;9.618;2023-03-01T08:30:54;18.97;;;11.40;;
15354;SDS011;7777;52.254;9.618;2023-03-01T08:33:20;18.23;;;10.83;;
15354;SDS011;7777;52.254;9.618;2023-03-01T08:35:45;16.60;;;10.80;;
15354;SDS011;7777;52.254;9.618;2023-03-01T08:38:11;15.80;;;10.70;;
15354;SDS011;7777;52.254;9.618;2023-03-01T08:40:37;14.37;;;9.67;;
15354;SDS011;7777;52.254;9.618;2023-03-01T08:43:02;16.67;;;11.03;;
15354;SDS011;7777;52.254;9.618;2023-03-01T08:45:28;17.63;;;10.37;;
15354;SDS011;7777;52.254;9.618;2023-03-01T08:47:54;15.57;;;9.90;;
15354;SDS011;7777;52.254;9.618;2023-03-01T08:50:19;16.90;;;9.90;;
15354;SDS011;7777;52.254;9.618;2023-03-01T08:52:45;14.10;;;9.87;;
15354;SDS011;7777;52.254;9.618;2023-03-01T08:55:11;17.63;;;10.33;;
15354;SDS011;7777;52.254;9.618;2023-03-01T08:57:36;17.07;;;9.20;;
15354;SDS011;7777;52.254;9.618;2023-03-01T09:00:02;17.40;;;9.50;;
15354;SDS011;7777;52.254;9.618;2023-03-01T09:02:33;18.67;;;9.97;;
15354;SDS011;7777;52.254;9.618;2023-03-01T09:04:58;13.90;;;9.10;;
15354;SDS011;7777;52.254;9.618;2023-03-01T09:07:25;15.07;;;8.77;;
15354;SDS011;7777;52.254;9.618;2023-03-01T09:09:53;14.37;;;9.60;;
15354;SDS011;7777;52.254;9.618;2023-03-01T09:12:20;13.47;;;9.37;;
15354;SDS011;7777;52.254;9.618;2023-03-01T09:14:46;11.37;;;8.53;;
15354;SDS011;7777;52.254;9.618;2023-03-01T09:17:11;14.47;;;8.67;;
15354;SDS011;7777;52.254;9.618;2023-03-01T09:19:37;15.63;;;9.57;;
15354;SDS011;7777;52.254;9.618;2023-03-01T09:22:03;16.13;;;9.57;;
15354;SDS011;7777;52.254;9.618;2023-03-01T09:24:29;12.50;;;8.13;;
15354;SDS011;7777;52.254;9.618;2023-03-01T09:26:55;17.77;;;8.67;;
15354;SDS011;7777;52.254;9.618;2023-03-01T09:29:21;12.53;;;7.67;;
15354;SDS011;7777;52.254;9.618;2023-03-01T09:31:47;13.37;;;8.07;;
15354;SDS011;7777;52.254;9.618;2023-03-01T09:34:13;10.17;;;7.50;;
15354;SDS011;7777;52.254;9.618;2023-03-01T09:36:41;18.63;;;9.40;;
15354;SDS011;7777;52.254;9.618;2023-03-01T09:39:06;22.40;;;11.80;;
15354;SDS011;7777;52.254;9.618;2023-03-01T09:47:03;15.97;;;8.40;;
15354;SDS011;7777;52.254;9.618;2023-03-01T09:49:31;29.73;;;18.70;;
15354;SDS011;7777;52.254;9.618;2023-03-01T09:52:03;25.80;;;16.50;;
15354;SDS011;7777;52.254;9.618;2023-03-01T09:55:12;11.70;;;7.90;;
15354;SDS011;7777;52.254;9.618;2023-03-01T10:00:23;11.40;;;7.70;;
15354;SDS011;7777;52.254;9.618;2023-03-01T10:03:08;7.53;;;4.87;;
15354;SDS011;7777;52.254;9.618;2023-03-01T10:05:48;8.00;;;5.20;;
15354;SDS011;7777;52.254;9.618;2023-03-01T10:11:23;8.93;;;5.33;;
15354;SDS011;7777;52.254;9.618;2023-03-01T10:14:07;12.03;;;6.27;;
15354;SDS011;7777;52.254;9.618;2023-03-01T10:16:55;11.10;;;5.37;;
15354;SDS011;7777;52.254;9.618;2023-03-01T10:22:02;11.43;;;5.80;;
15354;SDS011;7777;52.254;9.618;2023-03-01T10:24:34;9.30;;;6.03;;
15354;SDS011;7777;52.254;9.618;2023-03-01T10:27:04;10.67;;;5.87;;
15354;SDS011;7777;52.254;9.618;2023-03-01T10:33:04;10.70;;;6.17;;
15354;SDS011;7777;52.254;9.618;2023-03-01T10:35:48;9.47;;;5.97;;
15354;SDS011;7777;52.254;9.618;2023-03-01T10:38:15;12.20;;;5.33;;
15354;SDS011;7777;52.254;9.618;2023-03-01T10:40:55;12.10;;;6.30;;
15354;SDS011;7777;52.254;9.618;2023-03-01T10:43:42;13.97;;;7.07;;
15354;SDS011;7777;52.254;9.618;2023-03-01T10:46:34;10.83;;;6.33;;
15354;SDS011;7777;52.254;9.618;2023-03-01T10:51:47;10.90;;;6.17;;
15354;SDS011;7777;52.254;9.618;2023-03-01T10:56:56;10.57;;;6.67;;
15354;SDS011;7777;52.254;9.618;2023-03-01T10:59:29;9.27;;;5.77;;
15354;SDS011;7777;52.254;9.618;2023-03-01T11:02:01;11.27;;;6.10;;
15354;SDS011;7777;52.254;9.618;2023-03-01T11:04:39;9.00;;;6.07;;
15354;SDS011;7777;52.254;9.618;2023-03-01T11:07:21;11.43;;;6.00;;
15354;SDS011;7777;52.254;9.618;2023-03-01T11:09:47;9.40;;;6.07;;
15354;SDS011;7777;52.254;9.618;2023-03-01T11:12:13;7.50;;;5.10;;
15354;SDS011;7777;52.254;9.618;2023-03-01T11:14:48;9.90;;;5.20;;
15354;SDS011;7777;52.254;9.618;2023-03-01T11:22:50;9.03;;;5.33;;
15354;SDS011;7777;52.254;9.618;2023-03-01T11:25:28;10.13;;;5.13;;
15354;SDS011;7777;52.254;9.618;2023-03-01T11:28:20;8.20;;;4.80;;
15354;SDS011;7777;52.254;9.618;2023-03-01T11:30:58;9.20;;;4.57;;
15354;SDS011;7777;52.254;9.618;2023-03-01T11:36:29;7.70;;;4.80;;
15354;SDS011;7777;52.254;9.618;2023-03-01T11:39:17;8.63;;;4.80;;
15354;SDS011;7777;52.254;9.618;2023-03-01T11:45:16;8.70;;;4.97;;
15354;SDS011;7777;52.254;9.618;2023-03-01T11:47:55;6.20;;;4.60;;
15354;SDS011;7777;52.254;9.618;2023-03-01T11:50:49;8.57;;;4.73;;
15354;SDS011;7777;52.254;9.618;2023-03-01T11:55:55;6.57;;;4.47;;
15354;SDS011;7777;52.254;9.618;2023-03-01T12:09:59;7.33;;;4.80;;
15354;SDS011;7777;52.254;9.618;2023-03-01T12:15:56;8.50;;;4.43;;
15354;SDS011;7777;52.254;9.618;2023-03-01T12:18:39;5.60;;;4.00;;
15354;SDS011;7777;52.254;9.618;2023-03-01T12:29:57;11.03;;;4.20;;
15354;SDS011;7777;52.254;9.618;2023-03-01T12:32:54;7.10;;;4.60;;
15354;SDS011;7777;52.254;9.618;2023-03-01T12:36:05;7.53;;;3.93;;
15354;SDS011;7777;52.254;9.618;2023-03-01T12:38:59;7.97;;;4.07;;
15354;SDS011;7777;52.254;9.618;2023-03-01T12:44:52;6.80;;;4.77;;
15354;SDS011;7777;52.254;9.618;2023-03-01T12:47:35;6.70;;;4.03;;
15354;SDS011;7777;52.254;9.618;2023-03-01T12:50:19;7.27;;;4.43;;
15354;SDS011;7777;52.254;9.618;2023-03-01T12:52:50;7.73;;;4.30;;
15354;SDS011;7777;52.254;9.618;2023-03-01T12:55:34;7.83;;;3.97;;
15354;SDS011;7777;52.254;9.618;2023-03-01T12:58:22;6.70;;;4.20;;
15354;SDS011;7777;52.254;9.618;2023-03-01T13:01:02;6.63;;;4.17;;
15354;SDS011;7777;52.254;9.618;2023-03-01T13:04:06;6.27;;;3.40;;
15354;SDS011;7777;52.254;9.618;2023-03-01T13:09:56;7.53;;;4.13;;
15354;SDS011;7777;52.254;9.618;2023-03-01T13:13:13;7.13;;;4.10;;
15354;SDS011;7777;52.254;9.618;2023-03-01T13:15:50;6.40;;;3.70;;
15354;SDS011;7777;52.254;9.618;2023-03-01T13:20:48;5.53;;;3.73;;
15354;SDS011;7777;52.254;9.618;2023-03-01T13:38:58;5.90;;;3.53;;
15354;SDS011;7777;52.254;9.618;2023-03-01T13:52:43;4.80;;;3.20;;
15354;SDS011;7777;52.254;9.618;2023-03-01T13:57:39;5.60;;;3.07;;
15354;SDS011;7777;52.254;9.618;2023-03-01T14:03:04;5.30;;;3.33;;
15354;SDS011;7777;52.254;9.618;2023-03-01T14:05:40;4.90;;;3.47;;
15354;SDS011;7777;52.254;9.618;2023-03-01T14:08:27;7.80;;;3.93;;
15354;SDS011;7777;52.254;9.618;2023-03-01T14:14:08;5.33;;;3.60;;
15354;SDS011;7777;52.254;9.618;2023-03-01T14:20:09;6.63;;;3.80;;
15354;SDS011;7777;52.254;9.618;2023-03-01T14:22:44;4.97;;;3.70;;
15354;SDS011;7777;52.254;9.618;2023-03-01T14:28:14;5.63;;;3.30;;
15354;SDS011;7777;52.254;9.618;2023-03-01T14:30:47;5.57;;;3.80;;
15354;SDS011;7777;52.254;9.618;2023-03-01T14:33:29;5.47;;;3.83;;
15354;SDS011;7777;52.254;9.618;2023-03-01T14:43:50;5.97;;;3.53;;
15354;SDS011;7777;52.254;9.618;2023-03-01T14:46:30;7.67;;;3.23;;
15354;SDS011;7777;52.254;9.618;2023-03-01T14:49:03;6.67;;;3.53;;
15354;SDS011;7777;52.254;9.618;2023-03-01T14:51:40;5.53;;;3.90;;
15354;SDS011;7777;52.254;9.618;2023-03-01T14:54:18;5.40;;;3.73;;
15354;SDS011;7777;52.254;9.618;2023-03-01T14:57:13;4.97;;;3.50;;
15354;SDS011;7777;52.254;9.618;2023-03-01T14:59:42;5.60;;;3.03;;
15354;SDS011;7777;52.254;9.618;2023-03-01T15:02:12;4.67;;;2.87;;
15354;SDS011;7777;52.254;9.618;2023-03-01T15:04:48;6.17;;;2.93;;
15354;SDS011;7777;52.254;9.618;2023-03-01T15:07:17;4.20;;;2.93;;
15354;SDS011;7777;52.254;9.618;2023-03-01T15:09:44;4.53;;;2.60;;
15354;SDS011;7777;52.254;9.618;2023-03-01T15:15:19;4.33;;;3.10;;
15354;SDS011;7777;52.254;9.618;2023-03-01T15:17:57;5.63;;;2.90;;
15354;SDS011;7777;52.254;9.618;2023-03-01T15:20:26;4.10;;;2.40;;
15354;SDS011;7777;52.254;9.618;2023-03-01T15:22:55;4.57;;;2.93;;
15354;SDS011;7777;52.254;9.618;2023-03-01T15:25:23;5.23;;;2.90;;
15354;SDS011;7777;52.254;9.618;2023-03-01T15:27:54;8.30;;;2.90;;
15354;SDS011;7777;52.254;9.618;2023-03-01T15:30:26;7.07;;;2.73;;
15354;SDS011;7777;52.254;9.618;2023-03-01T15:35:51;5.97;;;3.27;;
15354;SDS011;7777;52.254;9.618;2023-03-01T15:38:25;5.23;;;2.50;;
15354;SDS011;7777;52.254;9.618;2023-03-01T15:41:24;5.10;;;2.90;;
15354;SDS011;7777;52.254;9.618;2023-03-01T15:43:56;5.77;;;2.77;;
15354;SDS011;7777;52.254;9.618;2023-03-01T15:46:33;3.50;;;2.37;;
15354;SDS011;7777;52.254;9.618;2023-03-01T15:49:19;8.90;;;3.30;;
15354;SDS011;7777;52.254;9.618;2023-03-01T15:52:12;4.33;;;2.83;;
15354;SDS011;7777;52.254;9.618;2023-03-01T15:54:53;5.30;;;3.10;;
15354;SDS011;7777;52.254;9.618;2023-03-01T15:57:24;7.90;;;2.73;;
15354;SDS011;7777;52.254;9.618;2023-03-01T15:59:50;4.57;;;2.40;;
15354;SDS011;7777;52.254;9.618;2023-03-01T16:02:15;4.80;;;2.80;;
15354;SDS011;7777;52.254;9.618;2023-03-01T16:04:41;5.07;;;2.60;;
15354;SDS011;7777;52.254;9.618;2023-03-01T16:07:08;5.70;;;2.70;;
15354;SDS011;7777;52.254;9.618;2023-03-01T16:09:34;3.67;;;2.30;;
15354;SDS011;7777;52.254;9.618;2023-03-01T16:12:00;4.60;;;2.23;;
15354;SDS011;7777;52.254;9.618;2023-03-01T16:14:26;4.47;;;2.80;;
15354;SDS011;7777;52.254;9.618;2023-03-01T16:16:52;5.07;;;2.50;;
15354;SDS011;7777;52.254;9.618;2023-03-01T16:19:18;5.80;;;2.63;;
15354;SDS011;7777;52.254;9.618;2023-03-01T16:21:44;7.00;;;3.20;;
15354;SDS011;7777;52.254;9.618;2023-03-01T16:24:12;7.57;;;3.00;;
15354;SDS011;7777;52.254;9.618;2023-03-01T16:26:38;8.73;;;3.03;;
15354;SDS011;7777;52.254;9.618;2023-03-01T16:29:04;5.13;;;3.13;;
15354;SDS011;7777;52.254;9.618;2023-03-01T16:31:30;4.83;;;2.73;;
15354;SDS011;7777;52.254;9.618;2023-03-01T16:33:56;4.87;;;2.83;;
15354;SDS011;7777;52.254;9.618;2023-03-01T16:36:24;3.80;;;2.40;;
15354;SDS011;7777;52.254;9.618;2023-03-01T16:38:53;4.77;;;2.83;;
15354;SDS011;7777;52.254;9.618;2023-03-01T16:41:21;5.80;;;3.40;;
15354;SDS011;7777;52.254;9.618;2023-03-01T16:43:48;5.70;;;3.67;;
15354;SDS011;7777;52.254;9.618;2023-03-01T16:46:19;5.23;;;3.43;;
15354;SDS011;7777;52.254;9.618;2023-03-01T16:48:48;5.17;;;3.30;;
15354;SDS011;7777;52.254;9.618;2023-03-01T16:51:14;7.10;;;3.30;;
15354;SDS011;7777;52.254;9.618;2023-03-01T16:53:43;6.63;;;3.10;;
15354;SDS011;7777;52.254;9.618;2023-03-01T16:56:09;7.43;;;3.10;;
15354;SDS011;7777;52.254;9.618;2023-03-01T16:58:37;6.47;;;3.43;;
15354;SDS011;7777;52.254;9.618;2023-03-01T17:01:07;7.73;;;4.17;;
15354;SDS011;7777;52.254;9.618;2023-03-01T17:03:37;14.23;;;3.87;;
15354;SDS011;7777;52.254;9.618;2023-03-01T17:06:04;8.30;;;4.00;;
15354;SDS011;7777;52.254;9.618;2023-03-01T17:08:33;8.43;;;4.10;;
15354;SDS011;7777;52.254;9.618;2023-03-01T17:11:03;9.07;;;4.27;;
15354;SDS011;7777;52.254;9.618;2023-03-01T17:13:31;17.93;;;4.90;;
15354;SDS011;7777;52.254;9.618;2023-03-01T17:15:57;8.40;;;4.17;;
15354;SDS011;7777;52.254;9.618;2023-03-01T17:18:23;7.13;;;4.77;;
15354;SDS011;7777;52.254;9.618;2023-03-01T17:20:49;8.27;;;5.60;;
15354;SDS011;7777;52.254;9.618;2023-03-01T17:23:14;10.40;;;6.17;;
15354;SDS011;7777;52.254;9.618;2023-03-01T17:25:41;6.40;;;4.67;;
15354;SDS011;7777;52.254;9.618;2023-03-01T17:28:09;7.33;;;4.37;;
15354;SDS011;7777;52.254;9.618;2023-03-01T17:30:37;8.53;;;4.50;;
15354;SDS011;7777;52.254;9.618;2023-03-01T17:33:08;6.57;;;3.90;;
15354;SDS011;7777;52.254;9.618;2023-03-01T17:35:35;6.20;;;3.73;;
15354;SDS011;7777;52.254;9.618;2023-03-01T17:38:02;5.83;;;3.03;;